Latest Weather Observations for Strathalbyn

IDS60801

Issued at 11:01 am CDT Sunday 7 February 2016 (issued every 30 minutes, with the page automatically refreshed every 10 minutes)

About weather observations | Map of weather stations | Latest weather observations for SA | Other Formats
Station Details ID: 024580 Name: STRATHALBYN RACECOURSE Lat: -35.28 Lon: 138.89 Height: 58.0 m
Data from the previous 72 hours. | See also: Recent months at Strathalbyn
Date/Time
CDT
Temp
°C
App
Temp
°C
Dew
Point
Rel
Hum
%
Delta-T
°C
Wind Press
QNH
hPa
Press
MSL
hPa
Rain
since 9 am
mm
Dir
 
Spd
km/h
Gust
km/h
Spd
kts
Gust
kts
07/11:00am 21.6 19.7 15.2 67 3.8 SSW 19 28 10 15 1018.4 - 0.0
07/10:30am 21.2 19.1 14.8 67 3.8 SSW 19 24 10 13 1018.6 - 0.0
07/10:00am 20.0 17.4 15.0 73 2.9 S 22 30 12 16 1018.7 - 0.0
07/09:30am 19.3 17.6 14.8 75 2.6 SSW 17 22 9 12 1018.7 - 0.0
07/09:00am 18.6 17.0 14.9 79 2.2 SSW 17 24 9 13 1018.6 1018.5 0.0
07/08:30am 18.2 16.9 14.7 80 2.0 S 15 20 8 11 1018.3 - 0.0
07/08:00am 18.1 16.4 14.8 81 1.9 S 17 22 9 12 1018.0 - 0.0
07/07:30am 18.0 16.8 15.1 83 1.7 S 15 24 8 13 1017.8 - 0.0
07/07:00am 17.7 16.1 15.1 85 1.5 SSW 17 22 9 12 1017.5 - 0.0
07/06:30am 17.3 16.1 15.1 87 1.3 SSW 15 24 8 13 1017.2 - 0.0
07/06:00am 16.9 15.6 14.9 88 1.2 SSW 15 20 8 11 1016.8 1016.7 0.0
07/05:30am 16.8 15.1 14.8 88 1.2 SW 17 22 9 12 1016.5 - 0.0
07/05:00am 16.2 15.9 14.4 89 1.0 SW 9 13 5 7 1015.8 - 0.0
07/04:30am 16.1 15.7 14.1 88 1.1 WSW 9 11 5 6 1015.6 - 0.0
07/04:00am 16.3 15.6 14.3 88 1.1 WSW 11 13 6 7 1015.6 - 0.0
07/03:30am 16.0 15.5 13.8 87 1.2 SW 9 11 5 6 1015.8 - 0.0
07/03:00am 16.2 16.1 13.9 86 1.3 SW 7 11 4 6 1015.9 1015.8 0.0
07/02:30am 17.1 17.8 14.4 84 1.6 SW 4 7 2 4 1016.0 - 0.0
07/02:00am 17.6 16.6 14.7 83 1.7 SSW 13 17 7 9 1016.3 - 0.0
07/01:30am 17.9 16.3 15.0 83 1.7 SSW 17 20 9 11 1016.7 - 0.0
07/01:00am 18.1 16.1 15.0 82 1.8 SSW 19 22 10 12 1016.8 - 0.0
07/12:30am 18.1 16.1 15.0 82 1.8 SSW 19 26 10 14 1016.8 - 0.0
07/12:00am 18.2 16.6 15.1 82 1.8 SSW 17 26 9 14 1016.8 1016.7 0.0
 
Date/Time
CDT
Temp
°C
App
Temp
°C
Dew
Point
Rel
Hum
%
Delta-T
°C
Wind Press
QNH
hPa
Press
MSL
hPa
Rain
since 9 am
mm
Dir
 
Spd
km/h
Gust
km/h
Spd
kts
Gust
kts
06/11:30pm 18.3 16.4 15.2 82 1.8 SSW 19 28 10 15 1016.7 - 0.0
06/11:00pm 18.4 16.3 15.3 82 1.8 SSW 20 28 11 15 1016.8 - 0.0
06/10:30pm 18.4 16.0 15.5 83 1.7 SSW 22 28 12 15 1016.6 - 0.0
06/10:00pm 18.2 16.3 15.3 83 1.7 SSW 19 22 10 12 1016.4 - 0.0
06/09:30pm 17.9 16.0 15.3 85 1.5 SSW 19 24 10 13 1016.0 - 0.0
06/09:00pm 17.9 16.0 15.2 84 1.6 SSW 19 32 10 17 1015.6 1015.5 0.0
06/08:30pm 18.3 16.5 15.4 83 1.7 SSW 19 26 10 14 1015.3 - 0.0
06/08:00pm 19.0 16.2 15.3 79 2.2 SSW 24 33 13 18 1014.8 - 0.0
06/07:30pm 19.7 15.4 15.4 76 2.5 SSW 32 41 17 22 1014.3 - 0.0
06/07:00pm 20.7 16.4 15.5 72 3.1 SSW 32 43 17 23 1014.0 - 0.0
06/06:30pm 21.4 16.6 15.7 70 3.4 SSW 35 46 19 25 1013.8 - 0.0
06/06:00pm 22.5 18.4 16.5 69 3.7 SSW 33 43 18 23 1013.7 1013.5 0.0
06/05:30pm 23.4 19.3 16.0 63 4.5 SSW 32 39 17 21 1013.5 - 0.0
06/05:00pm 24.5 21.2 16.0 59 5.2 SSW 28 35 15 19 1013.4 - 0.0
06/04:30pm 25.0 21.5 15.6 56 5.7 SSW 28 33 15 18 1013.3 - 0.0
06/04:00pm 26.0 22.7 16.0 54 6.1 SSW 28 33 15 18 1013.5 - 0.0
06/03:30pm 26.4 24.1 16.6 55 6.1 S 24 35 13 19 1013.7 - 0.0
06/03:00pm 27.5 24.9 16.8 52 6.7 S 26 33 14 18 1013.8 1013.6 0.0
06/02:30pm 28.8 25.7 15.7 45 8.1 S 26 32 14 17 1013.8 - 0.0
06/02:00pm 30.4 29.1 15.7 41 9.1 SSE 17 28 9 15 1014.0 - 0.0
06/01:30pm 29.6 28.3 13.8 38 9.5 SE 13 20 7 11 1014.2 - 0.0
06/01:00pm 28.9 27.6 14.7 42 8.6 SE 15 20 8 11 1014.5 - 0.0
06/12:30pm 28.9 27.5 11.0 33 10.3 SE 9 17 5 9 1014.9 - 0.0
06/12:00pm 27.8 27.3 13.7 42 8.4 SSW 9 13 5 7 1015.2 1015.1 0.0
06/11:30am 26.4 26.8 14.8 49 7.0 SW 6 9 3 5 1015.5 - 0.0
06/11:00am 24.4 24.9 15.1 56 5.6 SW 6 11 3 6 1015.8 - 0.0
06/10:30am 22.5 23.4 15.1 63 4.4 SW 4 9 2 5 1016.1 - 0.0
06/10:00am 20.7 20.9 15.7 73 3.0 SW 9 11 5 6 1016.1 - 0.0
06/09:30am 19.3 19.7 15.4 78 2.3 WSW 7 11 4 6 1016.3 - 0.0
06/09:00am 18.3 18.9 15.4 83 1.7 W 6 9 3 5 1016.2 1016.1 0.0
06/08:30am 18.0 18.8 15.8 87 1.3 SW 6 9 3 5 1016.1 - 0.0
06/08:00am 17.6 17.7 15.6 88 1.2 SW 9 11 5 6 1015.9 - 0.0
06/07:30am 17.4 17.9 15.6 89 1.1 WSW 7 11 4 6 1015.6 - 0.0
06/07:00am 17.1 17.5 15.4 90 1.0 WSW 7 9 4 5 1015.2 - 0.0
06/06:30am 16.9 17.0 15.4 91 0.9 WSW 9 13 5 7 1015.0 - 0.0
06/06:00am 16.7 16.7 15.2 91 0.9 WSW 9 13 5 7 1014.8 1014.7 0.0
06/05:30am 16.2 16.0 14.6 90 0.9 WSW 9 11 5 6 1014.6 - 0.0
06/05:00am 16.4 16.2 14.6 89 1.0 WSW 9 13 5 7 1014.5 - 0.0
06/04:30am 16.5 15.9 14.7 89 1.0 WSW 11 15 6 8 1014.6 - 0.0
06/04:00am 16.4 15.8 14.6 89 1.0 SW 11 15 6 8 1014.7 - 0.0
06/03:30am 16.4 15.4 14.6 89 1.0 SW 13 17 7 9 1015.0 - 0.0
06/03:00am 16.5 15.4 14.3 87 1.3 WSW 13 17 7 9 1015.3 1015.2 0.0
06/02:30am 16.6 15.9 14.4 87 1.3 SW 11 17 6 9 1015.7 - 0.0
06/02:00am 16.5 15.7 14.0 85 1.4 SW 11 15 6 8 1015.8 - 0.0
06/01:30am 16.5 15.4 14.2 86 1.3 SW 13 17 7 9 1016.0 - 0.0
06/01:00am 16.4 14.9 14.1 86 1.3 SW 15 20 8 11 1016.2 - 0.0
06/12:30am 16.3 14.7 14.0 86 1.3 WSW 15 20 8 11 1016.5 - 0.0
06/12:00am 16.3 15.1 14.0 86 1.3 SW 13 19 7 10 1016.9 1016.8 0.0
 
Date/Time
CDT
Temp
°C
App
Temp
°C
Dew
Point
Rel
Hum
%
Delta-T
°C
Wind Press
QNH
hPa
Press
MSL
hPa
Rain
since 9 am
mm
Dir
 
Spd
km/h
Gust
km/h
Spd
kts
Gust
kts
05/11:30pm 16.5 15.3 14.0 85 1.4 SW 13 19 7 10 1017.1 - 0.0
05/11:00pm 16.5 15.3 14.0 85 1.4 SW 13 19 7 10 1017.3 - 0.0
05/10:30pm 16.5 15.7 14.0 85 1.4 SW 11 15 6 8 1017.5 - 0.0
05/10:00pm 16.8 15.2 13.9 83 1.6 SSW 15 19 8 10 1017.5 - 0.0
05/09:30pm 17.0 15.0 13.9 82 1.8 SSW 17 20 9 11 1017.3 - 0.0
05/09:00pm 17.2 15.2 13.9 81 1.9 SSW 17 24 9 13 1017.1 1017.0 0.0
05/08:30pm 17.7 15.5 13.4 76 2.4 SSW 17 24 9 13 1016.9 - 0.0
05/08:00pm 18.5 14.7 12.3 67 3.5 SSW 24 32 13 17 1016.6 - 0.0
05/07:30pm 19.3 15.5 12.3 64 3.9 SSW 24 32 13 17 1016.3 - 0.0
05/07:00pm 19.9 15.6 12.2 61 4.3 SSW 26 33 14 18 1015.8 - 0.0
05/06:30pm 20.7 17.3 12.4 59 4.7 SSW 22 32 12 17 1015.8 - 0.0
05/06:00pm 21.2 17.2 12.9 59 4.7 SSW 26 33 14 18 1015.9 1015.8 0.0
05/05:30pm 21.1 16.9 12.3 57 5.0 SSW 26 33 14 18 1015.9 - 0.0
05/05:00pm 22.0 17.9 12.8 56 5.3 SSW 26 33 14 18 1015.9 - 0.0
05/04:30pm 22.4 18.4 12.9 55 5.5 S 26 39 14 21 1015.9 - 0.0
05/04:00pm 22.6 19.1 12.3 52 5.9 SSW 22 32 12 17 1016.0 - 0.0
05/03:30pm 22.8 19.8 12.7 53 5.8 S 20 28 11 15 1016.5 - 0.0
05/03:00pm 23.1 20.3 13.3 54 5.7 S 20 33 11 18 1016.8 1016.7 0.0
05/02:30pm 22.6 19.7 12.3 52 5.9 S 19 28 10 15 1017.2 - 0.0
05/02:00pm 22.1 19.2 12.4 54 5.5 S 19 32 10 17 1017.4 - 0.0
05/01:30pm 22.1 19.1 12.1 53 5.6 S 19 30 10 16 1017.6 - 0.0
05/01:00pm 21.7 18.9 11.4 52 5.7 S 17 28 9 15 1018.0 - 0.0
05/12:30pm 21.0 18.3 10.5 51 5.7 SSE 15 24 8 13 1018.4 - 0.0
05/12:00pm 20.3 17.6 10.4 53 5.4 SE 15 20 8 11 1018.5 1018.4 0.0
05/11:30am 19.3 16.5 10.0 55 5.0 SSE 15 22 8 12 1019.0 - 0.0
05/11:00am 18.5 15.6 9.8 57 4.6 SSE 15 24 8 13 1019.3 - 0.0
05/10:30am 18.0 15.1 9.6 58 4.4 SSE 15 20 8 11 1019.5 - 0.0
05/10:00am 17.1 13.9 10.0 63 3.8 SE 17 24 9 13 1019.7 - 0.0
05/09:30am 17.0 14.0 10.6 66 3.4 SE 17 28 9 15 1020.0 - 0.0
05/09:00am 16.3 12.9 10.6 69 3.0 SE 19 30 10 16 1020.2 1020.1 0.0
05/08:30am 15.4 11.3 10.0 70 2.8 SSE 22 32 12 17 1020.2 - 0.0
05/08:00am 14.8 11.1 10.0 73 2.5 SE 20 30 11 16 1020.0 - 0.0
05/07:30am 14.1 10.9 9.9 76 2.2 SE 17 22 9 12 1019.9 - 0.0
05/07:00am 13.5 10.2 9.7 78 2.0 SE 17 24 9 13 1019.7 - 0.0
05/06:30am 13.5 11.7 10.9 84 1.4 SSE 11 17 6 9 1019.4 - 0.0
05/06:00am 13.0 11.1 10.4 84 1.3 SSE 11 13 6 7 1019.1 1019.0 0.0
05/05:30am 13.4 10.3 10.4 82 1.6 SSE 17 22 9 12 1018.9 - 0.0
05/05:00am 13.4 10.7 10.4 82 1.6 SSE 15 22 8 12 1018.7 - 0.0
05/04:30am 13.5 10.1 10.7 83 1.5 SSE 19 26 10 14 1018.6 - 0.0
05/04:00am 13.6 11.2 11.5 87 1.1 S 15 20 8 11 1018.6 - 0.0
05/03:30am 13.2 11.2 11.4 89 1.0 S 13 15 7 8 1018.5 - 0.0
05/03:00am 13.5 11.1 11.4 87 1.1 S 15 17 8 9 1018.6 1018.5 0.0
05/02:30am 13.8 11.4 11.5 86 1.2 S 15 17 8 9 1018.7 - 0.0
05/02:00am 14.2 11.9 11.7 85 1.3 SSW 15 20 8 11 1019.1 - 0.0
05/01:30am 14.6 12.0 11.9 84 1.5 SSW 17 20 9 11 1019.2 - 0.0
05/01:00am 14.6 12.0 11.9 84 1.5 SSW 17 20 9 11 1019.2 - 0.0
05/12:30am 14.7 12.5 12.0 84 1.5 SSW 15 19 8 10 1019.2 - 0.0
05/12:00am 15.0 12.4 12.1 83 1.6 SSW 17 20 9 11 1019.4 1019.3 0.0
 
Date/Time
CDT
Temp
°C
App
Temp
°C
Dew
Point
Rel
Hum
%
Delta-T
°C
Wind Press
QNH
hPa
Press
MSL
hPa
Rain
since 9 am
mm
Dir
 
Spd
km/h
Gust
km/h
Spd
kts
Gust
kts
04/11:30pm 14.9 12.7 12.0 83 1.6 S 15 20 8 11 1019.6 - 0.0
04/11:00pm 15.2 12.2 12.1 82 1.7 S 19 24 10 13 1019.7 - 0.0
04/10:30pm 15.7 12.2 12.3 80 1.9 S 22 28 12 15 1019.8 - 0.0
04/10:00pm 15.9 12.9 12.5 80 1.9 S 20 32 11 17 1020.0 - 0.0
04/09:30pm 15.9 13.0 12.3 79 2.0 SSW 19 24 10 13 1019.7 - 0.0
04/09:00pm 16.0 13.0 12.0 77 2.2 S 19 28 10 15 1019.5 1019.4 0.0
04/08:30pm 16.3 12.7 11.7 74 2.5 S 22 30 12 16 1019.4 - 0.0
04/08:00pm 17.2 12.4 11.7 70 3.0 S 28 37 15 20 1019.1 - 0.0
04/07:30pm 18.0 12.4 11.6 66 3.5 S 32 41 17 22 1018.9 - 0.0
04/07:00pm 18.7 13.5 11.5 63 4.0 S 30 39 16 21 1018.8 - 0.0
04/06:30pm 18.9 12.7 11.5 62 4.1 S 35 44 19 24 1018.7 - 0.0
04/06:00pm 19.8 13.6 11.3 58 4.7 S 35 44 19 24 1018.7 1018.6 0.0
04/05:30pm 19.4 12.8 11.2 59 4.5 S 37 50 20 27 1018.6 - 0.0
04/05:00pm 20.0 13.1 11.7 59 4.6 S 39 52 21 28 1018.8 - 0.0
04/04:30pm 20.5 13.7 12.0 58 4.8 S 39 54 21 29 1019.0 - 0.0
04/04:00pm 20.1 12.7 11.1 56 4.9 S 41 52 22 28 1019.1 - 0.0
04/03:30pm 20.2 13.9 10.9 55 5.1 S 35 54 19 29 1019.5 - 0.0
04/03:00pm 20.0 13.3 11.0 56 4.9 S 37 52 20 28 1019.5 1019.4 0.0
04/02:30pm 19.8 13.6 11.3 58 4.7 S 35 46 19 25 1019.9 - 0.0
04/02:00pm 20.6 13.2 9.8 50 5.8 S 39 52 21 28 1020.0 - 0.0
04/01:30pm 20.3 14.0 11.0 55 5.1 S 35 48 19 26 1020.3 - 0.0
04/01:00pm 19.7 13.4 11.2 58 4.7 S 35 46 19 25 1020.6 - 0.0
04/12:30pm 19.5 13.5 10.8 57 4.7 S 33 48 18 26 1020.9 - 0.0
04/12:00pm 19.1 13.5 10.1 56 4.8 S 30 39 16 21 1021.3 1021.1 0.0
04/11:30am 19.4 14.5 10.1 55 5.0 SSE 26 37 14 20 1021.4 - 0.0

Other Formats:

Comma delimited format used in spreadsheet applications
http://www.bom.gov.au/fwo/IDS60801/IDS60801.94814.axf

JavaScript Object Notation format (JSON) in row-major order
http://www.bom.gov.au/fwo/IDS60801/IDS60801.94814.json